createdAt,value
2017-09-17T00:00:19.196Z,11.91
2017-09-17T00:01:21.018Z,11.85
2017-09-17T00:02:22.833Z,11.85
2017-09-17T00:03:24.721Z,11.86
2017-09-17T00:04:26.602Z,11.80
2017-09-17T00:05:28.481Z,11.78
2017-09-17T00:06:42.638Z,11.80
2017-09-17T00:07:44.513Z,11.85
2017-09-17T00:08:46.394Z,11.73
2017-09-17T00:09:48.272Z,11.76
2017-09-17T00:10:50.091Z,11.79
2017-09-17T00:11:51.909Z,11.78
2017-09-17T00:12:53.792Z,11.82
2017-09-17T00:13:55.673Z,11.78
2017-09-17T00:14:57.551Z,11.80
2017-09-17T00:16:11.707Z,11.80
2017-09-17T00:17:13.584Z,11.73
2017-09-17T00:18:15.465Z,11.73
2017-09-17T00:19:17.345Z,11.64
2017-09-17T00:20:19.165Z,11.62
2017-09-17T00:21:20.995Z,11.61
2017-09-17T00:22:22.873Z,11.61
2017-09-17T00:23:24.751Z,11.60
2017-09-17T00:24:26.632Z,11.51
2017-09-17T00:25:40.832Z,11.54
2017-09-17T00:26:42.711Z,11.49
2017-09-17T00:27:44.594Z,11.43
2017-09-17T00:28:46.478Z,11.42
2017-09-17T00:29:48.294Z,11.44
2017-09-17T00:30:50.122Z,11.40
2017-09-17T00:31:52.001Z,11.35
2017-09-17T00:32:53.881Z,11.29
2017-09-17T00:33:55.763Z,11.29
2017-09-17T00:35:09.915Z,11.36
2017-09-17T00:36:11.804Z,11.33
2017-09-17T00:37:13.684Z,11.39
2017-09-17T00:38:15.566Z,11.35
2017-09-17T00:39:17.386Z,11.28
2017-09-17T00:40:19.216Z,11.36
2017-09-17T00:41:21.102Z,11.35
2017-09-17T00:42:22.984Z,11.35
2017-09-17T00:43:24.866Z,11.28
2017-09-17T00:44:39.070Z,11.22
2017-09-17T00:45:40.949Z,11.27
2017-09-17T00:46:42.830Z,11.28
2017-09-17T00:47:44.709Z,11.40
2017-09-17T00:48:46.537Z,11.29
2017-09-17T00:49:48.369Z,11.29
2017-09-17T00:50:50.247Z,11.35
2017-09-17T00:51:52.127Z,11.39
2017-09-17T00:52:54.008Z,11.29
2017-09-17T00:54:08.164Z,11.35
2017-09-17T00:55:10.055Z,11.37
2017-09-17T00:56:11.933Z,11.42
2017-09-17T00:57:13.814Z,11.36
2017-09-17T00:58:15.633Z,11.36
2017-09-17T00:59:17.461Z,11.40
2017-09-17T01:00:19.350Z,11.33
2017-09-17T01:01:21.232Z,11.36
2017-09-17T01:02:23.110Z,11.27
2017-09-17T01:03:37.274Z,11.35
2017-09-17T01:04:39.153Z,11.22
2017-09-17T01:05:41.034Z,11.22
2017-09-17T01:06:42.912Z,11.19
2017-09-17T01:07:44.738Z,11.17
2017-09-17T01:08:46.549Z,11.19
2017-09-17T01:09:48.428Z,11.24
2017-09-17T01:10:50.317Z,11.04
2017-09-17T01:11:52.196Z,11.06
2017-09-17T01:13:06.346Z,11.07
2017-09-17T01:14:08.237Z,10.97
2017-09-17T01:15:10.126Z,10.91
2017-09-17T01:16:12.017Z,10.89
2017-09-17T01:17:13.838Z,11.10
2017-09-17T01:18:15.656Z,11.06
2017-09-17T01:19:17.532Z,11.10
2017-09-17T01:20:19.421Z,11.10
2017-09-17T01:21:21.304Z,11.14
2017-09-17T01:22:35.453Z,11.11
2017-09-17T01:23:37.344Z,11.07
2017-09-17T01:24:39.225Z,11.11
2017-09-17T01:25:41.100Z,11.07
2017-09-17T01:26:42.929Z,11.03
2017-09-17T01:27:44.747Z,10.99
2017-09-17T01:28:46.624Z,10.99
2017-09-17T01:29:48.501Z,10.94
2017-09-17T01:30:50.393Z,11.00
2017-09-17T01:32:04.598Z,10.91
2017-09-17T01:33:06.477Z,10.92
2017-09-17T01:34:08.357Z,10.94
2017-09-17T01:35:10.234Z,10.74
2017-09-17T01:36:12.052Z,10.73
2017-09-17T01:37:13.880Z,10.79
2017-09-17T01:38:15.718Z,10.67
2017-09-17T01:39:17.596Z,10.67
2017-09-17T01:40:19.480Z,10.68
2017-09-17T01:41:33.630Z,10.71
2017-09-17T01:42:35.523Z,10.66
2017-09-17T01:43:37.399Z,10.60
2017-09-17T01:44:39.282Z,10.63
2017-09-17T01:45:41.096Z,10.52
2017-09-17T01:46:42.914Z,10.59
2017-09-17T01:47:44.790Z,10.55
2017-09-17T01:48:46.667Z,10.45
2017-09-17T01:49:48.552Z,10.53
2017-09-17T01:51:02.704Z,10.52
2017-09-17T01:52:04.584Z,10.52
2017-09-17T01:53:06.463Z,10.60
2017-09-17T01:54:08.352Z,10.59
2017-09-17T01:55:10.171Z,10.61
2017-09-17T01:56:11.987Z,10.60
2017-09-17T01:57:13.864Z,10.61
2017-09-17T01:58:15.744Z,10.55
2017-09-17T01:59:17.623Z,10.55
2017-09-17T02:00:31.784Z,10.44
2017-09-17T02:01:33.676Z,10.44
2017-09-17T02:02:35.552Z,10.47
2017-09-17T02:03:37.441Z,10.42
2017-09-17T02:04:39.258Z,10.40
2017-09-17T02:05:41.077Z,10.30
2017-09-17T02:06:42.952Z,10.44
2017-09-17T02:07:44.832Z,10.36
2017-09-17T02:08:46.724Z,10.30
2017-09-17T02:10:00.874Z,10.32
2017-09-17T02:11:02.764Z,10.26
2017-09-17T02:12:04.645Z,10.29
2017-09-17T02:13:06.523Z,10.29
2017-09-17T02:14:08.341Z,10.20
2017-09-17T02:15:10.159Z,10.15
2017-09-17T02:16:12.051Z,10.17
2017-09-17T02:17:13.929Z,10.04
2017-09-17T02:18:15.807Z,10.14
2017-09-17T02:19:29.958Z,10.15
2017-09-17T02:20:31.839Z,10.11
2017-09-17T02:21:33.715Z,10.14
2017-09-17T02:22:35.603Z,10.11
2017-09-17T02:23:37.421Z,10.26
2017-09-17T02:24:39.241Z,10.30
2017-09-17T02:25:41.120Z,10.26
2017-09-17T02:26:42.997Z,10.30
2017-09-17T02:27:44.878Z,10.30
2017-09-17T02:28:59.079Z,10.36
2017-09-17T02:30:00.959Z,10.26
2017-09-17T02:31:02.840Z,10.22
2017-09-17T02:32:04.717Z,10.20
2017-09-17T02:33:06.545Z,10.15
2017-09-17T02:34:08.365Z,10.14
2017-09-17T02:35:10.239Z,10.23
2017-09-17T02:36:12.117Z,10.23
2017-09-17T02:37:14.000Z,10.14
2017-09-17T02:38:28.151Z,10.18
2017-09-17T02:39:30.032Z,10.05
2017-09-17T02:40:31.910Z,10.05
2017-09-17T02:41:33.786Z,10.05
2017-09-17T02:42:35.606Z,10.05
2017-09-17T02:43:37.423Z,10.09
2017-09-17T02:44:39.300Z,9.99
2017-09-17T02:45:41.176Z,9.91
2017-09-17T02:46:43.055Z,9.97
2017-09-17T02:47:57.205Z,9.96
2017-09-17T02:48:59.084Z,10.01
2017-09-17T02:50:00.973Z,9.93
2017-09-17T02:51:02.851Z,9.90
2017-09-17T02:52:04.668Z,9.93
2017-09-17T02:53:06.488Z,10.02
2017-09-17T02:54:08.376Z,9.91
2017-09-17T02:55:10.252Z,9.81
2017-09-17T02:56:12.132Z,9.86
2017-09-17T02:57:26.282Z,9.79
2017-09-17T02:58:28.160Z,9.83
2017-09-17T02:59:30.048Z,9.79
2017-09-17T03:00:31.926Z,9.74
2017-09-17T03:01:33.754Z,9.75
2017-09-17T03:02:35.574Z,9.66
2017-09-17T03:03:37.452Z,9.69
2017-09-17T03:04:39.331Z,9.68
2017-09-17T03:05:41.211Z,9.64
2017-09-17T03:06:55.363Z,9.61
2017-09-17T03:07:57.240Z,9.61
2017-09-17T03:08:59.123Z,9.64
2017-09-17T03:10:01.000Z,9.64
2017-09-17T03:11:02.826Z,9.60
2017-09-17T03:12:04.913Z,9.60
2017-09-17T03:13:07.138Z,9.57
2017-09-17T03:14:09.163Z,9.58
2017-09-17T03:15:11.108Z,9.64
2017-09-17T03:16:25.267Z,9.69
2017-09-17T03:17:27.144Z,9.69
2017-09-17T03:18:29.034Z,9.81
2017-09-17T03:19:30.911Z,9.76
2017-09-17T03:20:32.731Z,9.81
2017-09-17T03:21:34.546Z,9.81
2017-09-17T03:22:36.393Z,9.78
2017-09-17T03:23:38.206Z,9.83
2017-09-17T03:24:40.048Z,9.76
2017-09-17T03:25:54.196Z,9.76
2017-09-17T03:26:56.089Z,9.76
2017-09-17T03:27:57.969Z,9.81
2017-09-17T03:28:59.843Z,9.74
2017-09-17T03:30:01.676Z,9.66
2017-09-17T03:31:03.494Z,9.61
2017-09-17T03:32:05.369Z,9.58
2017-09-17T03:33:07.251Z,9.54
2017-09-17T03:34:09.129Z,9.57
2017-09-17T03:35:23.279Z,9.57
2017-09-17T03:36:25.158Z,9.51
2017-09-17T03:37:27.047Z,9.57
2017-09-17T03:38:28.923Z,9.61
2017-09-17T03:39:30.742Z,9.56
2017-09-17T03:40:32.559Z,9.65
2017-09-17T03:41:34.437Z,9.64
2017-09-17T03:42:36.316Z,9.61
2017-09-17T03:43:38.199Z,9.65
2017-09-17T03:44:52.346Z,9.66
2017-09-17T03:45:54.226Z,9.53
2017-09-17T03:46:56.108Z,9.54
2017-09-17T03:47:57.984Z,9.56
2017-09-17T03:48:59.800Z,9.66
2017-09-17T03:50:01.616Z,9.61
2017-09-17T03:51:03.495Z,9.57
2017-09-17T03:52:05.376Z,9.60
2017-09-17T03:53:07.252Z,9.64
2017-09-17T03:54:21.405Z,9.66
2017-09-17T03:55:23.284Z,9.74
2017-09-17T03:56:25.162Z,9.66
2017-09-17T03:57:27.049Z,9.64
2017-09-17T03:58:28.876Z,9.60
2017-09-17T03:59:30.692Z,9.60
2017-09-17T04:00:32.567Z,9.57
2017-09-17T04:01:34.445Z,9.60
2017-09-17T04:02:36.326Z,9.57
2017-09-17T04:03:50.476Z,9.57
2017-09-17T04:04:52.368Z,9.64
2017-09-17T04:05:54.247Z,9.56
2017-09-17T04:06:56.124Z,9.64
2017-09-17T04:07:57.943Z,9.54
2017-09-17T04:08:59.756Z,9.57
2017-09-17T04:10:01.638Z,9.57
2017-09-17T04:11:03.513Z,9.64
2017-09-17T04:12:05.395Z,9.58
2017-09-17T04:13:19.543Z,9.68
2017-09-17T04:14:21.439Z,9.64
2017-09-17T04:15:23.315Z,9.61
2017-09-17T04:16:25.192Z,9.57
2017-09-17T04:17:27.011Z,9.51
2017-09-17T04:18:28.827Z,9.54
2017-09-17T04:19:30.718Z,9.56
2017-09-17T04:20:32.608Z,9.58
2017-09-17T04:21:34.488Z,9.56
2017-09-17T04:22:48.637Z,9.64
2017-09-17T04:23:50.528Z,9.56
2017-09-17T04:24:52.406Z,9.53
2017-09-17T04:25:54.284Z,9.54
2017-09-17T04:26:56.112Z,9.57
2017-09-17T04:27:57.940Z,9.58
2017-09-17T04:28:59.819Z,9.60
2017-09-17T04:30:01.700Z,9.60
2017-09-17T04:31:03.581Z,9.64
2017-09-17T04:32:17.735Z,9.71
2017-09-17T04:33:19.637Z,9.64
2017-09-17T04:34:21.541Z,9.65
2017-09-17T04:35:23.450Z,9.69
2017-09-17T04:36:25.267Z,9.66
2017-09-17T04:37:27.085Z,9.68
2017-09-17T04:38:28.967Z,9.75
2017-09-17T04:39:30.850Z,9.75
2017-09-17T04:40:32.731Z,9.72
2017-09-17T04:41:46.879Z,9.72
2017-09-17T04:42:48.773Z,9.69
2017-09-17T04:43:50.663Z,9.66
2017-09-17T04:44:52.544Z,9.65
2017-09-17T04:45:54.364Z,9.65
2017-09-17T04:46:56.183Z,9.58
2017-09-17T04:47:58.066Z,9.54
2017-09-17T04:48:59.948Z,9.68
2017-09-17T04:50:01.832Z,9.60
2017-09-17T04:51:16.034Z,9.64
2017-09-17T04:52:17.921Z,9.66
2017-09-17T04:53:19.796Z,9.61
2017-09-17T04:54:21.677Z,9.60
2017-09-17T04:55:23.509Z,9.65
2017-09-17T04:56:25.328Z,9.64
2017-09-17T04:57:27.207Z,9.68
2017-09-17T04:58:29.129Z,9.75
2017-09-17T04:59:31.011Z,9.79
2017-09-17T05:00:45.178Z,9.78
2017-09-17T05:01:47.059Z,9.74
2017-09-17T05:02:48.942Z,9.96
2017-09-17T05:03:50.825Z,9.89
2017-09-17T05:04:52.647Z,9.90
2017-09-17T05:05:54.470Z,9.93
2017-09-17T05:06:56.354Z,10.09
2017-09-17T05:07:58.241Z,10.14
2017-09-17T05:09:00.128Z,10.15
2017-09-17T05:10:14.282Z,10.23
2017-09-17T05:11:16.181Z,10.27
2017-09-17T05:12:18.062Z,10.26
2017-09-17T05:13:19.955Z,10.40
2017-09-17T05:14:21.779Z,10.42
2017-09-17T05:15:23.602Z,10.45
2017-09-17T05:16:25.487Z,10.41
2017-09-17T05:17:27.376Z,10.52
2017-09-17T05:18:29.260Z,10.60
2017-09-17T05:19:43.434Z,10.52
2017-09-17T05:20:45.313Z,10.51
2017-09-17T05:21:47.198Z,10.66
2017-09-17T05:22:49.081Z,10.61
2017-09-17T05:23:50.905Z,10.56
2017-09-17T05:24:52.727Z,10.66
2017-09-17T05:25:54.611Z,10.63
2017-09-17T05:26:56.497Z,10.70
2017-09-17T05:27:58.386Z,10.73
2017-09-17T05:29:12.541Z,10.76
2017-09-17T05:30:14.427Z,10.78
2017-09-17T05:31:16.315Z,10.79
2017-09-17T05:32:18.194Z,10.76
2017-09-17T05:33:20.029Z,10.79
2017-09-17T05:34:21.851Z,10.78
2017-09-17T05:35:23.735Z,10.79
2017-09-17T05:36:25.622Z,10.82
2017-09-17T05:37:27.510Z,10.82
2017-09-17T05:38:41.666Z,10.86
2017-09-17T05:39:43.554Z,10.92
2017-09-17T05:40:45.438Z,10.89
2017-09-17T05:41:47.327Z,10.92
2017-09-17T05:42:49.145Z,10.89
2017-09-17T05:43:50.971Z,10.92
2017-09-17T05:44:52.855Z,10.91
2017-09-17T05:45:54.740Z,10.97
2017-09-17T05:46:56.630Z,10.94
2017-09-17T05:48:10.834Z,11.07
2017-09-17T05:49:12.720Z,11.07
2017-09-17T05:50:14.608Z,11.10
2017-09-17T05:51:16.496Z,11.19
2017-09-17T05:52:18.318Z,11.21
2017-09-17T05:53:20.139Z,11.32
2017-09-17T05:54:22.034Z,11.35
2017-09-17T05:55:23.920Z,11.35
2017-09-17T05:56:25.805Z,11.46
2017-09-17T05:57:39.942Z,11.44
2017-09-17T05:58:41.777Z,11.55
2017-09-17T05:59:43.600Z,11.65
2017-09-17T06:00:45.417Z,11.60
2017-09-17T06:01:47.305Z,11.69
2017-09-17T06:02:49.199Z,11.90
2017-09-17T06:03:51.054Z,11.95
2017-09-17T06:04:52.878Z,11.98
2017-09-17T06:05:54.704Z,12.12
2017-09-17T06:07:08.984Z,12.04
2017-09-17T06:08:10.869Z,12.16
2017-09-17T06:09:12.747Z,12.19
2017-09-17T06:10:14.635Z,12.16
2017-09-17T06:11:16.457Z,12.29
2017-09-17T06:12:18.280Z,12.35
2017-09-17T06:13:20.165Z,12.38
2017-09-17T06:14:22.060Z,12.46
2017-09-17T06:15:23.948Z,12.50
2017-09-17T06:16:38.106Z,12.52
2017-09-17T06:17:39.993Z,12.60
2017-09-17T06:18:41.879Z,12.56
2017-09-17T06:19:43.765Z,12.65
2017-09-17T06:20:45.590Z,12.74
2017-09-17T06:21:47.414Z,12.89
2017-09-17T06:22:49.300Z,12.92
2017-09-17T06:23:51.197Z,13.10
2017-09-17T06:24:53.085Z,13.15
2017-09-17T06:26:07.243Z,13.22
2017-09-17T06:27:09.130Z,13.29
2017-09-17T06:28:11.016Z,13.30
2017-09-17T06:29:12.901Z,13.22
2017-09-17T06:30:14.734Z,13.20
2017-09-17T06:31:16.552Z,13.28
2017-09-17T06:32:18.445Z,13.22
2017-09-17T06:33:20.328Z,13.17
2017-09-17T06:34:22.218Z,13.22
2017-09-17T06:35:36.376Z,13.07
2017-09-17T06:36:38.267Z,13.14
2017-09-17T06:37:40.152Z,13.11
2017-09-17T06:38:42.039Z,13.10
2017-09-17T06:39:43.865Z,13.05
2017-09-17T06:40:45.702Z,13.00
2017-09-17T06:41:47.590Z,13.04
2017-09-17T06:42:49.478Z,13.00
2017-09-17T06:43:51.379Z,13.01
2017-09-17T06:45:05.551Z,13.04
2017-09-17T06:46:07.438Z,13.07
2017-09-17T06:47:09.323Z,13.04
2017-09-17T06:48:11.210Z,13.07
2017-09-17T06:49:13.036Z,13.12
2017-09-17T06:50:14.861Z,13.05
2017-09-17T06:51:16.911Z,13.01
2017-09-17T06:52:18.878Z,13.07
2017-09-17T06:53:20.732Z,13.20
2017-09-17T06:54:34.889Z,13.15
2017-09-17T06:55:36.777Z,13.07
2017-09-17T06:56:38.661Z,13.17
2017-09-17T06:57:40.553Z,13.08
2017-09-17T06:58:42.379Z,13.11
2017-09-17T06:59:44.204Z,13.15
2017-09-17T07:00:46.089Z,13.17
2017-09-17T07:01:47.979Z,13.33
2017-09-17T07:02:49.871Z,13.36
2017-09-17T07:04:04.112Z,13.39
2017-09-17T07:05:06.016Z,13.49
2017-09-17T07:06:07.904Z,13.64
2017-09-17T07:07:09.802Z,13.81
2017-09-17T07:08:11.642Z,13.88
2017-09-17T07:09:13.464Z,14.00
2017-09-17T07:10:15.351Z,14.20
2017-09-17T07:11:17.297Z,14.22
2017-09-17T07:12:19.189Z,14.36
2017-09-17T07:13:33.358Z,14.46
2017-09-17T07:14:35.260Z,14.52
2017-09-17T07:15:37.147Z,14.60
2017-09-17T07:16:39.035Z,14.61
2017-09-17T07:17:40.862Z,14.68
2017-09-17T07:18:42.697Z,14.62
2017-09-17T07:19:44.625Z,14.69
2017-09-17T07:20:46.474Z,14.58
2017-09-17T07:21:48.340Z,14.64
2017-09-17T07:23:02.500Z,14.61
2017-09-17T07:24:04.390Z,14.73
2017-09-17T07:25:06.278Z,14.75
2017-09-17T07:26:08.175Z,14.72
2017-09-17T07:27:10.000Z,14.70
2017-09-17T07:28:11.821Z,14.75
2017-09-17T07:29:13.710Z,14.83
2017-09-17T07:30:15.599Z,14.88
2017-09-17T07:31:17.492Z,14.98
2017-09-17T07:32:31.654Z,14.96
2017-09-17T07:33:33.546Z,15.03
2017-09-17T07:34:35.433Z,15.20
2017-09-17T07:35:37.320Z,15.14
2017-09-17T07:36:39.158Z,15.23
2017-09-17T07:37:40.982Z,15.35
2017-09-17T07:38:42.880Z,15.34
2017-09-17T07:39:44.770Z,15.38
2017-09-17T07:40:46.662Z,15.46
2017-09-17T07:42:00.921Z,15.50
2017-09-17T07:43:02.813Z,15.50
2017-09-17T07:44:04.701Z,15.54
2017-09-17T07:45:06.593Z,15.51
2017-09-17T07:46:08.418Z,15.50
2017-09-17T07:47:10.245Z,15.57
2017-09-17T07:48:12.137Z,15.71
2017-09-17T07:49:14.028Z,15.74
2017-09-17T07:50:15.919Z,15.83
2017-09-17T07:51:30.090Z,15.93
2017-09-17T07:52:31.982Z,15.97
2017-09-17T07:53:33.891Z,16.01
2017-09-17T07:54:35.831Z,16.07
2017-09-17T07:55:37.630Z,16.14
2017-09-17T07:56:39.458Z,16.23
2017-09-17T07:57:41.355Z,16.24
2017-09-17T07:58:43.251Z,16.28
2017-09-17T07:59:45.138Z,16.33
2017-09-17T08:00:59.310Z,16.25
2017-09-17T08:02:01.202Z,16.24
2017-09-17T08:03:03.094Z,16.17
2017-09-17T08:04:04.994Z,16.14
2017-09-17T08:05:06.820Z,16.17
2017-09-17T08:06:08.651Z,16.20
2017-09-17T08:07:10.540Z,16.12
2017-09-17T08:08:12.431Z,16.08
2017-09-17T08:09:14.323Z,16.05
2017-09-17T08:10:28.482Z,16.23
2017-09-17T08:11:30.374Z,16.34
2017-09-17T08:12:32.274Z,16.46
2017-09-17T08:13:34.174Z,16.60
2017-09-17T08:14:36.004Z,16.42
2017-09-17T08:15:37.835Z,16.70
2017-09-17T08:16:39.722Z,16.82
2017-09-17T08:17:41.614Z,16.91
2017-09-17T08:18:43.507Z,16.88
2017-09-17T08:19:57.679Z,16.86
2017-09-17T08:20:59.583Z,16.89
2017-09-17T08:22:01.461Z,16.97
2017-09-17T08:23:03.354Z,17.06
2017-09-17T08:24:05.185Z,17.14
2017-09-17T08:25:07.014Z,17.19
2017-09-17T08:26:08.904Z,17.21
2017-09-17T08:27:10.796Z,17.30
2017-09-17T08:28:12.688Z,17.28
2017-09-17T08:29:26.854Z,17.30
2017-09-17T08:30:28.747Z,17.28
2017-09-17T08:31:30.637Z,17.44
2017-09-17T08:32:32.529Z,17.44
2017-09-17T08:33:34.359Z,17.34
2017-09-17T08:34:36.192Z,17.37
2017-09-17T08:35:38.084Z,17.48
2017-09-17T08:36:39.975Z,17.38
2017-09-17T08:37:41.878Z,17.44
2017-09-17T08:38:56.102Z,17.62
2017-09-17T08:39:57.995Z,17.62
2017-09-17T08:40:59.887Z,17.63
2017-09-17T08:42:01.793Z,17.78
2017-09-17T08:43:03.608Z,17.78
2017-09-17T08:44:05.442Z,17.81
2017-09-17T08:45:07.338Z,17.77
2017-09-17T08:46:09.234Z,17.81
2017-09-17T08:47:11.129Z,17.84
2017-09-17T08:48:25.293Z,17.72
2017-09-17T08:49:27.188Z,17.62
2017-09-17T08:50:29.081Z,17.71
2017-09-17T08:51:30.976Z,17.74
2017-09-17T08:52:32.806Z,17.92
2017-09-17T08:53:34.635Z,17.95
2017-09-17T08:54:36.549Z,17.92
2017-09-17T08:55:38.436Z,17.93
2017-09-17T08:56:40.324Z,17.86
2017-09-17T08:57:54.490Z,17.82
2017-09-17T08:58:56.411Z,17.89
2017-09-17T08:59:58.276Z,18.08
2017-09-17T09:01:00.170Z,18.02
2017-09-17T09:02:02.001Z,18.05
2017-09-17T09:03:03.831Z,18.17
2017-09-17T09:04:05.722Z,18.33
2017-09-17T09:05:07.619Z,18.45
2017-09-17T09:06:09.514Z,18.42
2017-09-17T09:07:23.677Z,18.52
2017-09-17T09:08:25.572Z,18.45
2017-09-17T09:09:27.465Z,18.39
2017-09-17T09:10:29.360Z,18.36
2017-09-17T09:11:31.192Z,18.41
2017-09-17T09:12:33.020Z,18.25
2017-09-17T09:13:34.913Z,18.05
2017-09-17T09:14:36.809Z,17.89
2017-09-17T09:15:38.709Z,17.84
2017-09-17T09:16:52.865Z,17.70
2017-09-17T09:17:54.753Z,17.68
2017-09-17T09:18:56.653Z,17.62
2017-09-17T09:19:58.546Z,17.72
2017-09-17T09:21:00.378Z,17.71
2017-09-17T09:22:02.206Z,17.64
2017-09-17T09:23:04.104Z,17.79
2017-09-17T09:24:06.004Z,17.64
2017-09-17T09:25:07.899Z,17.59
2017-09-17T09:26:22.060Z,17.49
2017-09-17T09:27:23.954Z,17.56
2017-09-17T09:28:25.867Z,17.55
2017-09-17T09:29:27.743Z,17.63
2017-09-17T09:30:29.579Z,17.81
2017-09-17T09:31:31.411Z,17.68
2017-09-17T09:32:33.302Z,17.63
2017-09-17T09:33:35.195Z,17.52
2017-09-17T09:34:37.089Z,17.48
2017-09-17T09:35:51.253Z,17.40
2017-09-17T09:36:53.144Z,17.44
2017-09-17T09:37:55.041Z,17.51
2017-09-17T09:38:56.942Z,17.38
2017-09-17T09:39:58.775Z,17.36
2017-09-17T09:41:00.603Z,17.40
2017-09-17T09:42:02.490Z,17.54
2017-09-17T09:43:04.389Z,17.52
2017-09-17T09:44:06.284Z,17.48
2017-09-17T09:45:20.560Z,17.48
2017-09-17T09:46:22.465Z,17.48
2017-09-17T09:47:24.354Z,17.48
2017-09-17T09:48:26.254Z,17.38
2017-09-17T09:49:28.083Z,17.37
2017-09-17T09:50:29.911Z,17.40
2017-09-17T09:51:31.798Z,17.40
2017-09-17T09:52:33.690Z,17.55
2017-09-17T09:53:35.594Z,17.68
2017-09-17T09:54:49.750Z,17.82
2017-09-17T09:55:51.641Z,17.82
2017-09-17T09:56:53.555Z,17.93
2017-09-17T09:57:55.437Z,17.82
2017-09-17T09:58:57.267Z,17.68
2017-09-17T09:59:59.559Z,17.51
2017-09-17T10:01:01.452Z,17.40
2017-09-17T10:02:03.336Z,17.33
2017-09-17T10:03:05.227Z,17.33
2017-09-17T10:04:19.395Z,17.44
2017-09-17T10:05:21.287Z,17.58
2017-09-17T10:06:23.177Z,17.63
2017-09-17T10:07:25.076Z,17.66
2017-09-17T10:08:27.225Z,17.66
2017-09-17T10:09:29.067Z,17.63
2017-09-17T10:10:30.956Z,17.66
2017-09-17T10:11:32.844Z,17.70
2017-09-17T10:12:34.738Z,17.63
2017-09-17T10:13:48.896Z,17.64
2017-09-17T10:14:50.783Z,17.66
2017-09-17T10:15:52.682Z,17.81
2017-09-17T10:16:54.572Z,17.89
2017-09-17T10:17:56.399Z,17.97
2017-09-17T10:18:58.227Z,18.03
2017-09-17T10:20:00.114Z,18.17
2017-09-17T10:21:02.018Z,18.17
2017-09-17T10:22:03.903Z,18.30
2017-09-17T10:23:18.064Z,18.41
2017-09-17T10:24:19.955Z,18.60
2017-09-17T10:25:21.845Z,18.73
2017-09-17T10:26:23.734Z,18.88
2017-09-17T10:27:25.623Z,19.06
2017-09-17T10:28:27.415Z,19.18
2017-09-17T10:29:29.305Z,19.33
2017-09-17T10:30:31.198Z,19.44
2017-09-17T10:31:33.088Z,19.51
2017-09-17T10:32:47.250Z,19.58
2017-09-17T10:33:49.138Z,19.51
2017-09-17T10:34:51.053Z,19.56
2017-09-17T10:35:52.946Z,19.65
2017-09-17T10:36:54.782Z,19.74
2017-09-17T10:37:56.604Z,19.74
2017-09-17T10:38:58.493Z,19.80
2017-09-17T10:40:00.387Z,19.94
2017-09-17T10:41:02.278Z,19.77
2017-09-17T10:42:16.445Z,19.83
2017-09-17T10:43:18.339Z,19.81
2017-09-17T10:44:20.231Z,19.63
2017-09-17T10:45:22.131Z,19.56
2017-09-17T10:46:23.963Z,19.55
2017-09-17T10:47:25.792Z,19.69
2017-09-17T10:48:27.682Z,19.80
2017-09-17T10:49:29.579Z,19.99
2017-09-17T10:50:31.466Z,20.02
2017-09-17T10:51:45.695Z,19.88
2017-09-17T10:52:47.588Z,19.77
2017-09-17T10:53:49.481Z,19.76
2017-09-17T10:54:51.373Z,19.73
2017-09-17T10:55:53.202Z,19.69
2017-09-17T10:56:55.089Z,19.78
2017-09-17T10:57:56.974Z,19.69
2017-09-17T10:58:58.865Z,19.54
2017-09-17T11:00:00.756Z,19.43
2017-09-17T11:01:14.920Z,19.28
2017-09-17T11:02:16.812Z,19.23
2017-09-17T11:03:18.698Z,19.31
2017-09-17T11:04:20.589Z,19.43
2017-09-17T11:05:22.422Z,19.44
2017-09-17T11:06:24.252Z,19.44
2017-09-17T11:07:26.340Z,19.39
2017-09-17T11:08:28.598Z,19.39
2017-09-17T11:09:30.522Z,19.36
2017-09-17T11:10:44.788Z,19.31
2017-09-17T11:11:46.683Z,19.40
2017-09-17T11:12:48.572Z,19.40
2017-09-17T11:13:50.461Z,19.43
2017-09-17T11:14:52.783Z,19.54
2017-09-17T11:15:54.619Z,19.66
2017-09-17T11:16:56.877Z,19.81
2017-09-17T11:17:59.194Z,19.92
2017-09-17T11:19:01.057Z,19.91
2017-09-17T11:20:15.679Z,19.92
2017-09-17T11:21:17.967Z,19.98
2017-09-17T11:22:20.264Z,20.11
2017-09-17T11:23:22.151Z,20.18
2017-09-17T11:24:23.982Z,20.10
2017-09-17T11:25:25.855Z,19.99
2017-09-17T11:26:27.746Z,19.94
2017-09-17T11:27:29.635Z,19.78
2017-09-17T11:28:31.530Z,19.61
2017-09-17T11:29:45.701Z,19.68
2017-09-17T11:30:47.600Z,19.88
2017-09-17T11:31:49.491Z,19.96
2017-09-17T11:32:51.416Z,20.08
2017-09-17T11:33:53.247Z,20.24
2017-09-17T11:34:55.141Z,20.21
2017-09-17T11:35:57.059Z,20.26
2017-09-17T11:36:58.948Z,20.23
2017-09-17T11:38:00.840Z,20.26
2017-09-17T11:39:15.054Z,20.13
2017-09-17T11:40:16.945Z,20.14
2017-09-17T11:41:18.838Z,20.10
2017-09-17T11:42:20.741Z,20.17
2017-09-17T11:43:22.568Z,20.32
2017-09-17T11:44:24.400Z,20.50
2017-09-17T11:45:26.288Z,20.54
2017-09-17T11:46:28.175Z,20.62
2017-09-17T11:47:30.066Z,20.66
2017-09-17T11:48:44.233Z,20.72
2017-09-17T11:49:46.673Z,20.77
2017-09-17T11:50:48.681Z,20.72
2017-09-17T11:51:50.721Z,20.51
2017-09-17T11:52:52.962Z,20.41
2017-09-17T11:53:55.229Z,20.32
2017-09-17T11:54:57.174Z,20.41
2017-09-17T11:55:59.063Z,20.41
2017-09-17T11:57:00.954Z,20.57
2017-09-17T11:58:15.119Z,20.69
2017-09-17T11:59:17.010Z,20.84
2017-09-17T12:00:18.898Z,20.69
2017-09-17T12:01:20.786Z,20.84
2017-09-17T12:02:22.621Z,20.99
2017-09-17T12:03:24.458Z,21.09
2017-09-17T12:04:26.339Z,21.27
2017-09-17T12:05:28.241Z,21.28
2017-09-17T12:06:30.138Z,21.28
2017-09-17T12:07:44.302Z,21.40
2017-09-17T12:08:46.199Z,21.16
2017-09-17T12:09:48.084Z,21.01
2017-09-17T12:10:49.971Z,21.07
2017-09-17T12:11:51.801Z,21.22
2017-09-17T12:12:53.643Z,21.38
2017-09-17T12:13:55.531Z,21.34
2017-09-17T12:14:57.432Z,21.22
2017-09-17T12:15:59.326Z,21.03
2017-09-17T12:17:13.489Z,21.01
2017-09-17T12:18:15.385Z,20.91
2017-09-17T12:19:17.272Z,20.77
2017-09-17T12:20:19.163Z,20.79
2017-09-17T12:21:20.997Z,20.67
2017-09-17T12:22:22.829Z,20.62
2017-09-17T12:23:24.717Z,20.39
2017-09-17T12:24:26.570Z,20.31
2017-09-17T12:25:28.401Z,20.32
2017-09-17T12:26:42.590Z,20.08
2017-09-17T12:27:44.479Z,20.01
2017-09-17T12:28:46.369Z,19.99
2017-09-17T12:29:48.259Z,20.11
2017-09-17T12:30:50.092Z,20.20
2017-09-17T12:31:51.922Z,20.32
2017-09-17T12:32:53.810Z,20.39
2017-09-17T12:33:55.709Z,20.38
2017-09-17T12:34:57.602Z,20.17
2017-09-17T12:36:11.965Z,20.10
2017-09-17T12:37:13.855Z,20.13
2017-09-17T12:38:15.745Z,20.06
2017-09-17T12:39:17.634Z,20.10
2017-09-17T12:40:19.478Z,20.20
2017-09-17T12:41:21.305Z,20.26
2017-09-17T12:42:23.207Z,20.32
2017-09-17T12:43:25.095Z,20.29
2017-09-17T12:44:26.986Z,20.38
2017-09-17T12:45:41.154Z,20.38
2017-09-17T12:46:43.065Z,20.23
2017-09-17T12:47:44.984Z,20.26
2017-09-17T12:48:46.867Z,20.33
2017-09-17T12:49:48.700Z,20.33
2017-09-17T12:50:50.530Z,20.43
2017-09-17T12:51:52.417Z,20.41
2017-09-17T12:52:54.316Z,20.39
2017-09-17T12:53:56.230Z,20.33
2017-09-17T12:55:10.382Z,20.23
2017-09-17T12:56:12.272Z,20.10
2017-09-17T12:57:14.168Z,20.03
2017-09-17T12:58:16.062Z,20.08
2017-09-17T12:59:17.890Z,20.10
2017-09-17T13:00:19.725Z,20.10
2017-09-17T13:01:21.620Z,20.11
2017-09-17T13:02:23.511Z,20.05
2017-09-17T13:03:25.403Z,20.08
2017-09-17T13:04:39.572Z,20.13
2017-09-17T13:05:41.459Z,20.16
2017-09-17T13:06:43.347Z,20.11
2017-09-17T13:07:45.235Z,20.16
2017-09-17T13:08:47.071Z,20.29
2017-09-17T13:09:48.903Z,20.42
2017-09-17T13:10:50.790Z,20.41
2017-09-17T13:11:52.690Z,20.48
2017-09-17T13:12:54.583Z,20.39
2017-09-17T13:14:08.748Z,20.57
2017-09-17T13:15:10.637Z,20.76
2017-09-17T13:16:12.525Z,20.85
2017-09-17T13:17:14.413Z,20.98
2017-09-17T13:18:16.244Z,20.84
2017-09-17T13:19:18.076Z,20.94
2017-09-17T13:20:19.965Z,20.85
2017-09-17T13:21:21.860Z,20.58
2017-09-17T13:22:23.751Z,20.62
2017-09-17T13:23:37.917Z,20.52
2017-09-17T13:24:39.807Z,20.55
2017-09-17T13:25:41.696Z,20.52
2017-09-17T13:26:43.586Z,20.36
2017-09-17T13:27:45.416Z,20.28
2017-09-17T13:28:47.246Z,20.36
2017-09-17T13:29:49.140Z,20.36
2017-09-17T13:30:51.027Z,20.24
2017-09-17T13:31:52.920Z,20.02
2017-09-17T13:33:07.092Z,20.13
2017-09-17T13:34:08.982Z,20.21
2017-09-17T13:35:10.876Z,20.28
2017-09-17T13:36:12.761Z,20.31
2017-09-17T13:37:14.592Z,20.24
2017-09-17T13:38:16.425Z,20.18